Station MLWW3 - Port of Milwaukee Image indicating link to RSS feed of recent meteorological observations for station MLWW3


Conditions at MLWW3 as of
(2:10 am CDT)
0710 GMT on 05/24/2024:
     

Click on the graph icon in the table below to see a time series plot of the last five days of that observation.

5-day plot - Wind Speed Wind Speed (WSPD):0.0 m/s
5-day plot - Wind Gust Wind Gust (GST):0.0 m/s
5-day plot - Air Temperature Air Temperature (ATMP): 13.2 °C
5-day plot -  Wind Speed, Wind Gust and Atmospheric Pressure Combined plot of Wind Speed, Gust, and Air Pressure
Previous observations
TIME
(CDT)
5-day plot - Wind Direction
WDIR
 
5-day plot - Wind Speed
WSPD
m/s
5-day plot - Wind Gust
GST
m/s
5-day plot - Wave Height
WVHT
m
5-day plot - Dominant Wave Period
DPD
sec
5-day plot - Average Wave Period
APD
sec
5-day plot - Mean Wave Direction
MWD
 
5-day plot - Atmospheric Pressure
PRES
mb
5-day plot - Pressure Tendency
PTDY
mb
5-day plot - Air Temperature
ATMP
°C
5-day plot - Water Temperature
WTMP
°C
5-day plot - Dew Point
DEWP
°C
5-day plot - Salinity
SAL
psu
5-day plot - Visibility
VIS
km
5-day plot - Tide (above MLLW)
TIDE
m
2024-05-24 02:00 am- 0 0------ 13.5-----
2024-05-24 01:50 am- 0 0------ 13.4-----
2024-05-24 01:40 am- 0 0------ 13.2-----
2024-05-24 01:30 am- 0 0------ 13.5-----
2024-05-24 01:20 am- 0 0------ 13.6-----
2024-05-24 01:10 am- 0 0------ 13.6-----
2024-05-24 01:00 am- 0 0------ 13.4-----
2024-05-24 12:50 am- 0 0------ 13.0-----
2024-05-24 12:40 am- 0 0------ 13.4-----
2024-05-24 12:30 am- 0 0------ 13.3-----
2024-05-24 12:20 am- 0 0------ 13.0-----
2024-05-24 12:10 am- 0 0------ 13.2-----
2024-05-24 12:00 am N 0 1------ 13.4-----
2024-05-23 11:50 pm N 0 0------ 13.3-----
2024-05-23 11:40 pm- 0 0------ 13.0-----
2024-05-23 11:30 pmNNE 1 2------ 13.1-----
2024-05-23 11:10 pmENE 1 1------ 13.6-----
2024-05-23 11:00 pmNNE 0 2------ 13.7-----
2024-05-23 10:50 pmESE 0 1------ 13.8-----
2024-05-23 10:40 pm SE 2 3------ 14.2-----
2024-05-23 10:30 pmENE 5 5------ 14.8-----
2024-05-23 10:20 pm NE 5 5------ 14.7-----
2024-05-23 10:10 pm NE 4 4------ 14.7-----
2024-05-23 10:00 pm N 1 2------ 15.0-----
2024-05-23 09:50 pmNNW 3 3------ 16.6-----
2024-05-23 09:40 pmNNW 0 2------ 17.1-----
2024-05-23 09:30 pm SW 0 0------ 16.6-----
2024-05-23 09:20 pmNNW 0 1------ 14.3-----
2024-05-23 09:10 pm- 0 0------ 13.8-----
2024-05-23 09:00 pm S 1 2------ 13.6-----
2024-05-23 08:50 pm SE 2 2------ 14.2-----
2024-05-23 08:40 pmSSE 1 2------ 14.7-----
2024-05-23 08:30 pm SE 2 3------ 15.4-----
2024-05-23 08:20 pmENE 4 5------ 15.5-----
2024-05-23 08:10 pm S 3 4------ 20.5-----
2024-05-23 08:00 pmSSW 4 4------ 20.7-----
2024-05-23 07:50 pm S 4 5------ 20.9-----
2024-05-23 07:40 pm S 5 6------ 20.9-----
2024-05-23 07:30 pm S 6 7------ 21.2-----
2024-05-23 07:20 pm S 5 6------ 21.2-----
2024-05-23 07:10 pm S 4 5------ 21.1-----
2024-05-23 07:00 pm S 5 5------ 21.4-----
2024-05-23 06:50 pm S 4 5------ 21.1-----
2024-05-23 06:40 pm S 5 6------ 21.3-----
2024-05-23 06:30 pm S 6 7------ 21.4-----
2024-05-23 06:20 pmSSE 5 6------ 21.2-----
2024-05-23 06:10 pm S 6 7------ 21.6-----
2024-05-23 06:00 pm S 6 8------ 21.8-----
2024-05-23 05:50 pm S 6 8------ 21.6-----
2024-05-23 05:40 pm S 7 8------ 21.7-----
2024-05-23 05:30 pm S 7 8------ 21.5-----
2024-05-23 05:20 pm S 7 8------ 21.7-----
2024-05-23 05:10 pm S 8 9------ 21.6-----
2024-05-23 05:00 pmSSE 7 8------ 21.7-----
2024-05-23 04:50 pmSSE 8 9------ 21.5-----
2024-05-23 04:40 pmSSE 8 9------ 21.4-----
2024-05-23 04:30 pmSSE 8 9------ 21.0-----
2024-05-23 04:20 pmSSE 7 8------ 20.3-----
2024-05-23 04:10 pm S 8 9------ 20.9-----
2024-05-23 04:00 pmSSE 8 9------ 19.5-----
2024-05-23 03:50 pmSSE 7 8------ 20.1-----
2024-05-23 03:40 pmSSE 7 9------ 18.3-----
2024-05-23 03:30 pmSSE 8 9------ 20.7-----
2024-05-23 03:20 pm SE 7 8------ 20.0-----
2024-05-23 03:10 pmSSE 8 10------ 20.8-----
2024-05-23 03:00 pmSSE 8 8------ 20.3-----
2024-05-23 02:50 pmSSE 9 10------ 20.9-----
2024-05-23 02:40 pm SE 7 9------ 17.4-----
2024-05-23 02:30 pm SE 8 9------ 17.7-----
2024-05-23 02:20 pm SE 6 8------ 17.0-----
2024-05-23 02:10 pmSSE 8 9------ 18.6-----
2024-05-23 02:00 pm SE 4 6------ 19.8-----
2024-05-23 01:50 pm SE 4 6------ 18.6-----
2024-05-23 01:40 pmSSE 3 4------ 20.9-----
2024-05-23 01:30 pm S 3 4------ 23.5-----
2024-05-23 01:20 pmWSW 3 5------ 23.4-----
2024-05-23 01:10 pm W 2 3------ 23.4-----
2024-05-23 01:00 pm SW 6 7------ 23.3-----
2024-05-23 12:50 pmWSW 4 5------ 23.7-----
2024-05-23 12:40 pm NE 0 1------ 21.0-----
2024-05-23 12:30 pm SE 2 2------ 19.1-----
2024-05-23 12:20 pmESE 2 4------ 19.5-----
2024-05-23 12:10 pmSSE 4 4------ 19.0-----
2024-05-23 12:00 pm SE 4 5------ 17.1-----
2024-05-23 11:50 am SE 5 6------ 17.5-----
2024-05-23 11:40 am SE 5 5------ 16.3-----
2024-05-23 11:30 am SE 3 4------ 17.2-----
2024-05-23 11:20 amESE 2 3------ 19.4-----
2024-05-23 11:10 amESE 2 3------ 19.7-----
2024-05-23 11:00 amESE 5 5------ 17.8-----
2024-05-23 10:50 amWNW 1 2------ 22.5-----
2024-05-23 10:40 am SW 3 5------ 22.1-----
2024-05-23 10:30 am SW 4 5------ 22.0-----
2024-05-23 10:20 am SW 2 2------ 21.8-----
2024-05-23 10:10 am W 2 3------ 21.9-----
2024-05-23 10:00 am SW 2 3------ 21.3-----
2024-05-23 09:50 am S 2 3------ 21.4-----
2024-05-23 09:40 amWSW 2 3------ 21.2-----
2024-05-23 09:30 am W 2 4------ 21.0-----
2024-05-23 09:20 amWSW 3 4------ 20.8-----
2024-05-23 09:10 amSSW 3 3------ 20.3-----
2024-05-23 09:00 am SW 3 4------ 20.0-----
2024-05-23 08:50 am W 2 3------ 20.1-----
2024-05-23 08:40 am W 2 3------ 19.9-----
2024-05-23 08:30 am W 2 3------ 19.3-----
2024-05-23 08:20 am W 2 3------ 19.0-----
2024-05-23 08:10 am W 3 3------ 18.5-----
2024-05-23 08:00 am W 2 3------ 18.2-----
2024-05-23 07:50 amWSW 3 4------ 17.8-----
2024-05-23 07:40 am W 3 4------ 17.4-----
2024-05-23 07:30 am W 3 4------ 16.9-----
2024-05-23 07:20 amWSW 4 5------ 16.6-----
2024-05-23 07:10 am SW 3 3------ 16.3-----
2024-05-23 07:00 am SW 4 5------ 15.9-----
2024-05-23 06:50 amWSW 3 4------ 15.8-----
2024-05-23 06:40 amWSW 2 3------ 15.5-----
2024-05-23 06:30 am W 2 3------ 15.2-----
2024-05-23 06:20 am W 3 4------ 14.9-----
2024-05-23 06:10 amWSW 2 3------ 14.9-----
2024-05-23 06:00 am W 2 2------ 14.6-----
2024-05-23 05:50 amWSW 2 3------ 14.5-----
2024-05-23 05:40 amWSW 2 3------ 14.5-----
2024-05-23 05:30 am W 2 3------ 14.3-----
2024-05-23 05:20 am W 2 3------ 14.3-----
2024-05-23 05:10 amWSW 3 3------ 14.6-----
2024-05-23 05:00 am W 2 3------ 14.6-----
2024-05-23 04:50 am W 2 3------ 15.0-----
2024-05-23 04:40 am W 3 4------ 14.8-----
2024-05-23 04:30 am W 3 3------ 14.7-----
2024-05-23 04:20 am W 3 3------ 14.8-----
2024-05-23 04:10 am W 3 4------ 14.9-----
2024-05-23 04:00 am W 3 4------ 15.0-----
2024-05-23 03:50 am W 3 3------ 15.1-----
2024-05-23 03:40 am W 3 4------ 15.1-----
2024-05-23 03:30 am W 3 4------ 15.2-----
2024-05-23 03:20 amWSW 3 4------ 15.4-----
2024-05-23 03:10 amWSW 3 4------ 15.3-----
2024-05-23 03:00 am W 3 4------ 15.4-----
2024-05-23 02:50 amWSW 3 3------ 15.4-----
2024-05-23 02:40 amWSW 2 4------ 15.4-----
2024-05-23 02:30 am W 2 3------ 15.4-----
2024-05-23 02:20 amWSW 2 3------ 15.5-----
2024-05-23 02:10 amWSW 2 3------ 15.5-----
2024-05-23 02:00 amWSW 2 3------ 15.6-----
2024-05-23 01:50 am SW 2 2------ 15.8-----